Terminal Aerodrome Forecast
Issued by NWS

Home | Current Version | Previous Version | Text Only | Print | Product List | Glossary On
Versions: 1 2 3 4 5 6 7 8 9 10 11 12 13
000
FTUS42 KFFC 042326
TAFRYY
TAF
KRYY 042326Z 0500/0524 17005KT P6SM SKC
     FM050200 00000KT P6SM SKC
     FM051500 14005KT P6SM FEW045
     FM051900 10006KT P6SM SCT060
      AMD NOT SKED 0504/0512=

USA.gov is the U.S. government's official web portal to all federal, state and local government web resources and services.